NPV7542 LICT-LICG
Flight info
| Callsign | NPV7542 |
|---|---|
| Flight time | 0h 49m |
| Altitude | 19000 |
| Route | MEGAN M740 ROBET |
| Aircraft | DH8D/M-SDE2E3FGRY/H |
Departure
| Time | 2026-04-26 15:15 |
|---|---|
| Airport | Vincenzo Florio Airport Trapani-Birgi (LICT) |
Arrival
| Time | 2026-04-26 16:05 |
|---|---|
| Airport | Pantelleria Airport (LICG) |
| Time | Latitude | Longitude | Altitude | Speed | Heading |
|---|---|---|---|---|---|
| 2026-04-26 14:20 | 37.90320 | 12.49545 | 36 ft | 0 kts | 262° |
| 2026-04-26 14:57 | 37.90320 | 12.49544 | 36 ft | 0 kts | 262° |
| 2026-04-26 15:02 | 37.90320 | 12.49543 | 36 ft | 0 kts | 262° |
| 2026-04-26 15:05 | 37.90319 | 12.49530 | 36 ft | 4 kts | 262° |
| 2026-04-26 15:05 | 37.90329 | 12.49494 | 36 ft | 5 kts | 317° |
| 2026-04-26 15:06 | 37.90358 | 12.49477 | 35 ft | 4 kts | 343° |
| 2026-04-26 15:06 | 37.90376 | 12.49483 | 35 ft | 1 kts | 48° |
| 2026-04-26 15:06 | 37.90386 | 12.49517 | 36 ft | 5 kts | 46° |
| 2026-04-26 15:06 | 37.90414 | 12.49535 | 36 ft | 5 kts | 23° |
| 2026-04-26 15:07 | 37.90441 | 12.49664 | 36 ft | 7 kts | 59° |
| 2026-04-26 15:07 | 37.90476 | 12.49703 | 36 ft | 5 kts | 36° |
| 2026-04-26 15:07 | 37.90488 | 12.49714 | 36 ft | 0 kts | 36° |
| 2026-04-26 15:10 | 37.90513 | 12.49737 | 37 ft | 8 kts | 36° |
| 2026-04-26 15:10 | 37.90543 | 12.49752 | 37 ft | 6 kts | 346° |
| 2026-04-26 15:10 | 37.90566 | 12.49732 | 37 ft | 0 kts | 310° |
| 2026-04-26 15:13 | 37.90568 | 12.49729 | 37 ft | 4 kts | 310° |
| 2026-04-26 15:13 | 37.90582 | 12.49709 | 36 ft | 0 kts | 310° |
| 2026-04-26 15:15 | 37.90589 | 12.49699 | 37 ft | 14 kts | 310° |
| 2026-04-26 15:15 | 37.90874 | 12.49247 | 32 ft | 110 kts | 306° |
| 2026-04-26 15:15 | 37.91462 | 12.48258 | 77 ft | 160 kts | 313° |
| 2026-04-26 15:15 | 37.92205 | 12.47217 | 642 ft | 163 kts | 316° |
| 2026-04-26 15:16 | 37.93099 | 12.46238 | 1130 ft | 179 kts | 336° |
| 2026-04-26 15:16 | 37.94321 | 12.45942 | 1817 ft | 181 kts | 357° |
| 2026-04-26 15:16 | 37.95569 | 12.45800 | 2557 ft | 185 kts | 356° |
| 2026-04-26 15:16 | 37.96838 | 12.45651 | 3283 ft | 184 kts | 356° |
| 2026-04-26 15:17 | 37.98089 | 12.45407 | 3966 ft | 185 kts | 343° |
| 2026-04-26 15:17 | 37.98870 | 12.44987 | 4421 ft | 186 kts | 335° |
| 2026-04-26 15:17 | 38.00387 | 12.44014 | 5343 ft | 186 kts | 334° |
| 2026-04-26 15:17 | 38.01536 | 12.43274 | 6039 ft | 185 kts | 334° |
| 2026-04-26 15:18 | 38.02682 | 12.42535 | 6720 ft | 185 kts | 334° |
| 2026-04-26 15:18 | 38.03826 | 12.41798 | 7383 ft | 185 kts | 334° |
| 2026-04-26 15:18 | 38.04980 | 12.41054 | 7977 ft | 188 kts | 334° |
| 2026-04-26 15:18 | 38.06146 | 12.40301 | 8497 ft | 192 kts | 333° |
| 2026-04-26 15:19 | 38.07334 | 12.39504 | 9050 ft | 194 kts | 332° |
| 2026-04-26 15:19 | 38.08531 | 12.38688 | 9627 ft | 195 kts | 332° |
| 2026-04-26 15:19 | 38.09713 | 12.37885 | 10187 ft | 196 kts | 332° |
| 2026-04-26 15:19 | 38.10912 | 12.37070 | 10758 ft | 197 kts | 332° |
| 2026-04-26 15:20 | 38.12125 | 12.36247 | 11319 ft | 197 kts | 331° |
| 2026-04-26 15:20 | 38.13327 | 12.35431 | 11867 ft | 196 kts | 331° |
| 2026-04-26 15:20 | 38.14406 | 12.34428 | 12348 ft | 194 kts | 303° |
| 2026-04-26 15:20 | 38.14676 | 12.32805 | 12739 ft | 194 kts | 256° |
| 2026-04-26 15:21 | 38.13874 | 12.31465 | 13105 ft | 198 kts | 208° |
| 2026-04-26 15:21 | 38.12518 | 12.31147 | 13496 ft | 202 kts | 182° |
| 2026-04-26 15:21 | 38.11123 | 12.31184 | 13921 ft | 203 kts | 181° |
| 2026-04-26 15:21 | 38.09709 | 12.31236 | 14343 ft | 203 kts | 181° |
| 2026-04-26 15:22 | 38.08301 | 12.31293 | 14755 ft | 203 kts | 181° |
| 2026-04-26 15:22 | 38.06878 | 12.31354 | 15146 ft | 203 kts | 181° |
| 2026-04-26 15:22 | 38.05469 | 12.31417 | 15525 ft | 203 kts | 182° |
| 2026-04-26 15:22 | 38.04055 | 12.31482 | 15878 ft | 203 kts | 182° |
| 2026-04-26 15:23 | 38.02655 | 12.31548 | 16246 ft | 203 kts | 182° |
| 2026-04-26 15:23 | 38.01244 | 12.31615 | 16604 ft | 203 kts | 182° |
| 2026-04-26 15:23 | 37.99832 | 12.31683 | 16950 ft | 202 kts | 182° |
| 2026-04-26 15:23 | 37.98431 | 12.31751 | 17276 ft | 202 kts | 182° |
| 2026-04-26 15:24 | 37.97026 | 12.31819 | 17600 ft | 201 kts | 182° |
| 2026-04-26 15:24 | 37.95629 | 12.31885 | 17914 ft | 201 kts | 184° |
| 2026-04-26 15:24 | 37.94249 | 12.31694 | 18196 ft | 196 kts | 198° |
| 2026-04-26 15:24 | 37.92945 | 12.31271 | 18464 ft | 195 kts | 200° |
| 2026-04-26 15:25 | 37.91629 | 12.30808 | 18715 ft | 195 kts | 201° |
| 2026-04-26 15:25 | 37.90758 | 12.30498 | 18879 ft | 195 kts | 201° |
| 2026-04-26 15:25 | 37.89012 | 12.29870 | 19177 ft | 196 kts | 201° |
| 2026-04-26 15:25 | 37.87707 | 12.29404 | 19411 ft | 197 kts | 201° |
| 2026-04-26 15:26 | 37.86390 | 12.28933 | 19682 ft | 198 kts | 202° |
| 2026-04-26 15:26 | 37.85052 | 12.28432 | 19943 ft | 198 kts | 202° |
| 2026-04-26 15:26 | 37.83736 | 12.27927 | 20199 ft | 199 kts | 202° |
| 2026-04-26 15:26 | 37.82406 | 12.27418 | 20442 ft | 199 kts | 202° |
| 2026-04-26 15:27 | 37.81084 | 12.26916 | 20676 ft | 199 kts | 202° |
| 2026-04-26 15:27 | 37.79762 | 12.26417 | 20914 ft | 198 kts | 202° |
| 2026-04-26 15:27 | 37.78424 | 12.25918 | 21020 ft | 208 kts | 202° |
| 2026-04-26 15:27 | 37.77000 | 12.25375 | 21042 ft | 218 kts | 202° |
| 2026-04-26 15:28 | 37.75500 | 12.24793 | 21113 ft | 229 kts | 202° |
| 2026-04-26 15:28 | 37.73930 | 12.24170 | 21141 ft | 242 kts | 202° |
| 2026-04-26 15:28 | 37.72294 | 12.23508 | 21145 ft | 255 kts | 202° |
| 2026-04-26 15:28 | 37.70542 | 12.22793 | 21144 ft | 268 kts | 202° |
| 2026-04-26 15:29 | 37.68726 | 12.22049 | 21144 ft | 280 kts | 202° |
| 2026-04-26 15:29 | 37.66833 | 12.21268 | 21137 ft | 286 kts | 202° |
| 2026-04-26 15:29 | 37.63037 | 12.19707 | 21131 ft | 289 kts | 202° |
| 2026-04-26 15:30 | 37.59170 | 12.18115 | 21131 ft | 292 kts | 202° |
| 2026-04-26 15:30 | 37.57235 | 12.17320 | 21130 ft | 293 kts | 202° |
| 2026-04-26 15:30 | 37.55299 | 12.16522 | 21132 ft | 294 kts | 202° |
| 2026-04-26 15:31 | 37.53357 | 12.15721 | 21132 ft | 295 kts | 202° |
| 2026-04-26 15:31 | 37.49407 | 12.14105 | 21132 ft | 298 kts | 202° |
| 2026-04-26 15:31 | 37.47436 | 12.13333 | 21132 ft | 299 kts | 201° |
| 2026-04-26 15:32 | 37.44095 | 12.12092 | 21131 ft | 300 kts | 201° |
| 2026-04-26 15:32 | 37.41408 | 12.11096 | 21132 ft | 301 kts | 200° |
| 2026-04-26 15:32 | 37.39407 | 12.10353 | 21132 ft | 302 kts | 201° |
| 2026-04-26 15:33 | 37.37380 | 12.09601 | 21130 ft | 302 kts | 201° |
| 2026-04-26 15:33 | 37.35366 | 12.08853 | 21130 ft | 302 kts | 201° |
| 2026-04-26 15:33 | 37.33353 | 12.08106 | 21132 ft | 303 kts | 201° |
| 2026-04-26 15:33 | 37.31311 | 12.07349 | 21130 ft | 303 kts | 201° |
| 2026-04-26 15:34 | 37.29299 | 12.06602 | 21132 ft | 303 kts | 201° |
| 2026-04-26 15:34 | 37.27277 | 12.05852 | 21131 ft | 303 kts | 201° |
| 2026-04-26 15:34 | 37.25285 | 12.05123 | 21110 ft | 283 kts | 201° |
| 2026-04-26 15:34 | 37.23470 | 12.04470 | 21101 ft | 258 kts | 201° |
| 2026-04-26 15:35 | 37.21825 | 12.03877 | 21094 ft | 233 kts | 202° |
| 2026-04-26 15:35 | 37.20258 | 12.03290 | 21125 ft | 237 kts | 202° |
| 2026-04-26 15:35 | 37.18695 | 12.02699 | 21127 ft | 235 kts | 202° |
| 2026-04-26 15:35 | 37.17115 | 12.02109 | 21127 ft | 234 kts | 202° |
| 2026-04-26 15:36 | 37.15567 | 12.01531 | 21127 ft | 232 kts | 202° |
| 2026-04-26 15:36 | 37.14039 | 12.00963 | 21127 ft | 230 kts | 202° |
| 2026-04-26 15:36 | 37.12505 | 12.00394 | 21127 ft | 228 kts | 202° |
| 2026-04-26 15:36 | 37.10971 | 11.99826 | 21125 ft | 226 kts | 202° |
| 2026-04-26 15:37 | 37.09470 | 11.99270 | 21124 ft | 224 kts | 203° |
| 2026-04-26 15:37 | 37.07982 | 11.98721 | 21118 ft | 217 kts | 202° |
| 2026-04-26 15:37 | 37.06628 | 11.98242 | 21048 ft | 189 kts | 202° |
| 2026-04-26 15:37 | 37.05313 | 11.98051 | 20425 ft | 209 kts | 173° |
| 2026-04-26 15:38 | 37.04011 | 11.98986 | 19305 ft | 239 kts | 127° |
| 2026-04-26 15:38 | 37.03272 | 12.00752 | 19011 ft | 213 kts | 114° |
| 2026-04-26 15:38 | 37.02708 | 12.02352 | 18727 ft | 198 kts | 114° |
| 2026-04-26 15:38 | 37.02117 | 12.03959 | 17795 ft | 218 kts | 115° |
| 2026-04-26 15:39 | 37.01481 | 12.05648 | 17363 ft | 203 kts | 115° |
| 2026-04-26 15:39 | 37.00897 | 12.07185 | 16893 ft | 199 kts | 115° |
| 2026-04-26 15:39 | 37.00289 | 12.08765 | 16164 ft | 207 kts | 116° |
| 2026-04-26 15:39 | 36.99873 | 12.09839 | 15834 ft | 201 kts | 116° |
| 2026-04-26 15:40 | 36.99076 | 12.11884 | 15136 ft | 198 kts | 116° |
| 2026-04-26 15:40 | 36.98468 | 12.13435 | 14523 ft | 199 kts | 116° |
| 2026-04-26 15:40 | 36.97872 | 12.14950 | 14050 ft | 193 kts | 116° |
| 2026-04-26 15:40 | 36.97275 | 12.16464 | 13480 ft | 194 kts | 115° |
| 2026-04-26 15:41 | 36.96685 | 12.17958 | 12946 ft | 192 kts | 115° |
| 2026-04-26 15:41 | 36.96105 | 12.19422 | 12443 ft | 188 kts | 115° |
| 2026-04-26 15:41 | 36.95441 | 12.20802 | 11849 ft | 191 kts | 138° |
| 2026-04-26 15:41 | 36.94251 | 12.21550 | 11096 ft | 194 kts | 169° |
| 2026-04-26 15:42 | 36.93023 | 12.21900 | 10947 ft | 173 kts | 170° |
| 2026-04-26 15:42 | 36.91818 | 12.22228 | 10796 ft | 177 kts | 171° |
| 2026-04-26 15:42 | 36.90644 | 12.22547 | 10811 ft | 171 kts | 170° |
| 2026-04-26 15:42 | 36.89458 | 12.22876 | 10717 ft | 174 kts | 170° |
| 2026-04-26 15:43 | 36.88270 | 12.23194 | 10639 ft | 173 kts | 176° |
| 2026-04-26 15:43 | 36.87120 | 12.22884 | 10271 ft | 174 kts | 224° |
| 2026-04-26 15:43 | 36.86218 | 12.20244 | 9184 ft | 165 kts | 258° |
| 2026-04-26 15:44 | 36.85940 | 12.18870 | 8701 ft | 161 kts | 258° |
| 2026-04-26 15:44 | 36.85416 | 12.16200 | 7773 ft | 161 kts | 259° |
| 2026-04-26 15:44 | 36.85150 | 12.14817 | 7086 ft | 173 kts | 259° |
| 2026-04-26 15:45 | 36.84559 | 12.11738 | 5656 ft | 193 kts | 258° |
| 2026-04-26 15:45 | 36.84245 | 12.10108 | 4947 ft | 200 kts | 258° |
| 2026-04-26 15:46 | 36.83587 | 12.06683 | 3521 ft | 206 kts | 258° |
| 2026-04-26 15:46 | 36.83259 | 12.04987 | 2988 ft | 199 kts | 258° |
| 2026-04-26 15:46 | 36.82935 | 12.03380 | 2713 ft | 181 kts | 257° |
| 2026-04-26 15:46 | 36.82739 | 12.02402 | 2520 ft | 171 kts | 258° |
| 2026-04-26 15:47 | 36.82368 | 12.00564 | 1982 ft | 166 kts | 256° |
| 2026-04-26 15:47 | 36.81793 | 11.97614 | 780 ft | 176 kts | 256° |
| 2026-04-26 15:47 | 36.81530 | 11.96229 | 680 ft | 145 kts | 259° |
| 2026-04-26 15:48 | 36.81342 | 11.95028 | 699 ft | 155 kts | 264° |
| 2026-04-26 15:48 | 36.81496 | 11.93612 | 1341 ft | 190 kts | 289° |
| 2026-04-26 15:48 | 36.82232 | 11.91980 | 1503 ft | 241 kts | 313° |
| 2026-04-26 15:48 | 36.83443 | 11.90387 | 1600 ft | 259 kts | 316° |
| 2026-04-26 15:49 | 36.84678 | 11.88760 | 1166 ft | 252 kts | 309° |
| 2026-04-26 15:49 | 36.85448 | 11.86952 | 1158 ft | 226 kts | 289° |
| 2026-04-26 15:49 | 36.85686 | 11.85111 | 1069 ft | 209 kts | 268° |
| 2026-04-26 15:49 | 36.85180 | 11.83405 | 374 ft | 217 kts | 238° |
| 2026-04-26 15:50 | 36.84531 | 11.82021 | 1039 ft | 174 kts | 244° |
| 2026-04-26 15:50 | 36.83928 | 11.80600 | 892 ft | 189 kts | 241° |
| 2026-04-26 15:50 | 36.83632 | 11.79076 | 1034 ft | 184 kts | 285° |
| 2026-04-26 15:50 | 36.84557 | 11.78098 | 963 ft | 178 kts | 355° |
| 2026-04-26 15:51 | 36.85713 | 11.78207 | 1213 ft | 169 kts | 18° |
| 2026-04-26 15:51 | 36.86605 | 11.79071 | 1269 ft | 161 kts | 64° |
| 2026-04-26 15:51 | 36.87336 | 11.80039 | 1394 ft | 157 kts | 26° |
| 2026-04-26 15:51 | 36.88172 | 11.80946 | 1206 ft | 171 kts | 67° |
| 2026-04-26 15:52 | 36.88458 | 11.82378 | 1287 ft | 167 kts | 80° |
| 2026-04-26 15:52 | 36.88767 | 11.83834 | 1266 ft | 178 kts | 76° |
| 2026-04-26 15:52 | 36.89084 | 11.85357 | 1253 ft | 186 kts | 76° |
| 2026-04-26 15:52 | 36.89303 | 11.86393 | 1381 ft | 183 kts | 76° |
| 2026-04-26 15:53 | 36.89746 | 11.88479 | 1521 ft | 186 kts | 76° |
| 2026-04-26 15:53 | 36.90075 | 11.90039 | 1684 ft | 185 kts | 76° |
| 2026-04-26 15:53 | 36.90402 | 11.91590 | 1779 ft | 187 kts | 76° |
| 2026-04-26 15:53 | 36.90732 | 11.93166 | 1935 ft | 186 kts | 76° |
| 2026-04-26 15:54 | 36.91059 | 11.94737 | 2062 ft | 186 kts | 76° |
| 2026-04-26 15:54 | 36.91378 | 11.96291 | 2198 ft | 186 kts | 76° |
| 2026-04-26 15:54 | 36.91694 | 11.97861 | 2352 ft | 190 kts | 76° |
| 2026-04-26 15:54 | 36.91997 | 11.99477 | 2745 ft | 192 kts | 77° |
| 2026-04-26 15:55 | 36.92247 | 12.01136 | 2924 ft | 194 kts | 78° |
| 2026-04-26 15:55 | 36.92497 | 12.02803 | 3030 ft | 195 kts | 78° |
| 2026-04-26 15:55 | 36.92752 | 12.04474 | 3079 ft | 198 kts | 78° |
| 2026-04-26 15:55 | 36.93018 | 12.06187 | 3109 ft | 203 kts | 77° |
| 2026-04-26 15:56 | 36.93297 | 12.07962 | 3032 ft | 213 kts | 77° |
| 2026-04-26 15:56 | 36.93588 | 12.09796 | 2991 ft | 220 kts | 77° |
| 2026-04-26 15:56 | 36.93892 | 12.11701 | 2970 ft | 221 kts | 77° |
| 2026-04-26 15:56 | 36.94191 | 12.13552 | 2957 ft | 214 kts | 77° |
| 2026-04-26 15:57 | 36.94480 | 12.15339 | 2948 ft | 207 kts | 77° |
| 2026-04-26 15:57 | 36.94760 | 12.17073 | 2945 ft | 200 kts | 77° |
| 2026-04-26 15:57 | 36.95025 | 12.18731 | 2942 ft | 192 kts | 78° |
| 2026-04-26 15:57 | 36.95058 | 12.19825 | 2923 ft | 188 kts | 101° |
| 2026-04-26 15:58 | 36.93949 | 12.21255 | 2934 ft | 171 kts | 160° |
| 2026-04-26 15:58 | 36.92833 | 12.21671 | 2935 ft | 161 kts | 164° |
| 2026-04-26 15:58 | 36.91793 | 12.22029 | 2924 ft | 150 kts | 164° |
| 2026-04-26 15:58 | 36.90785 | 12.22365 | 2754 ft | 151 kts | 165° |
| 2026-04-26 15:59 | 36.89764 | 12.22696 | 2513 ft | 150 kts | 164° |
| 2026-04-26 15:59 | 36.88752 | 12.23022 | 2267 ft | 149 kts | 165° |
| 2026-04-26 15:59 | 36.87731 | 12.23248 | 1948 ft | 152 kts | 186° |
| 2026-04-26 15:59 | 36.86829 | 12.22541 | 1379 ft | 166 kts | 244° |
| 2026-04-26 16:00 | 36.86484 | 12.21232 | 1418 ft | 153 kts | 256° |
| 2026-04-26 16:00 | 36.86224 | 12.19959 | 1754 ft | 153 kts | 257° |
| 2026-04-26 16:00 | 36.85968 | 12.18673 | 2139 ft | 157 kts | 257° |
| 2026-04-26 16:00 | 36.85699 | 12.17324 | 2531 ft | 162 kts | 257° |
| 2026-04-26 16:01 | 36.85424 | 12.15936 | 2924 ft | 168 kts | 257° |
| 2026-04-26 16:01 | 36.85136 | 12.14477 | 3201 ft | 184 kts | 258° |
| 2026-04-26 16:01 | 36.84834 | 12.12985 | 3215 ft | 165 kts | 257° |
| 2026-04-26 16:01 | 36.84561 | 12.11702 | 3126 ft | 143 kts | 258° |
| 2026-04-26 16:02 | 36.84328 | 12.10531 | 3014 ft | 138 kts | 258° |
| 2026-04-26 16:02 | 36.84098 | 12.09356 | 2755 ft | 141 kts | 257° |
| 2026-04-26 16:02 | 36.83859 | 12.08153 | 2451 ft | 143 kts | 257° |
| 2026-04-26 16:02 | 36.83701 | 12.07350 | 2282 ft | 142 kts | 257° |
| 2026-04-26 16:03 | 36.83387 | 12.05755 | 1915 ft | 142 kts | 257° |
| 2026-04-26 16:03 | 36.83163 | 12.04593 | 1661 ft | 136 kts | 257° |
| 2026-04-26 16:03 | 36.82966 | 12.03487 | 1485 ft | 122 kts | 257° |
| 2026-04-26 16:03 | 36.82765 | 12.02459 | 1463 ft | 121 kts | 258° |
| 2026-04-26 16:04 | 36.82568 | 12.01424 | 1403 ft | 126 kts | 257° |
| 2026-04-26 16:04 | 36.82340 | 12.00341 | 1354 ft | 133 kts | 257° |
| 2026-04-26 16:04 | 36.82106 | 11.99236 | 1096 ft | 130 kts | 255° |
| 2026-04-26 16:04 | 36.81895 | 11.98152 | 683 ft | 129 kts | 256° |
| 2026-04-26 16:05 | 36.81692 | 11.97124 | 602 ft | 109 kts | 255° |
| 2026-04-26 16:05 | 36.81533 | 11.96290 | 607 ft | 84 kts | 258° |
| 2026-04-26 16:05 | 36.81448 | 11.95855 | 616 ft | 12 kts | 253° |
| 2026-04-26 16:05 | 36.81420 | 11.95725 | 613 ft | 23 kts | 258° |
| 2026-04-26 16:06 | 36.81405 | 11.95620 | 609 ft | 6 kts | 180° |
| 2026-04-26 16:06 | 36.81410 | 11.95713 | 612 ft | 19 kts | 65° |
| 2026-04-26 16:06 | 36.81462 | 11.95942 | 616 ft | 34 kts | 75° |
| 2026-04-26 16:06 | 36.81530 | 11.96290 | 607 ft | 47 kts | 77° |
| 2026-04-26 16:07 | 36.81605 | 11.96679 | 601 ft | 41 kts | 77° |
| 2026-04-26 16:07 | 36.81651 | 11.96882 | 599 ft | 17 kts | 54° |
| 2026-04-26 16:07 | 36.81738 | 11.96932 | 596 ft | 13 kts | 347° |
| 2026-04-26 16:07 | 36.81751 | 11.96922 | 596 ft | 0 kts | 320° |
| 2026-04-26 16:08 | 36.81752 | 11.96922 | 595 ft | 0 kts | 320° |
| 2026-04-26 16:08 | 36.81765 | 11.96900 | 595 ft | 11 kts | 299° |
| 2026-04-26 16:08 | 36.81833 | 11.96859 | 591 ft | 2 kts | 323° |
| 2026-04-26 16:08 | 36.81862 | 11.96826 | 589 ft | 3 kts | 24° |
| 2026-04-26 16:09 | 36.81866 | 11.96835 | 589 ft | 0 kts | 61° |